createdAt,value
2019-05-02T00:02:24.124Z,9.93
2019-05-02T00:04:55.850Z,11.40
2019-05-02T00:07:21.746Z,11.50
2019-05-02T00:09:50.378Z,10.50
2019-05-02T00:12:19.162Z,10.33
2019-05-02T00:14:48.012Z,10.90
2019-05-02T00:17:20.320Z,9.67
2019-05-02T00:19:49.875Z,9.87
2019-05-02T00:22:17.254Z,10.38
2019-05-02T00:24:44.163Z,10.07
2019-05-02T00:27:13.001Z,9.90
2019-05-02T00:29:41.907Z,10.97
2019-05-02T00:32:10.721Z,10.37
2019-05-02T00:34:39.577Z,10.23
2019-05-02T00:37:08.416Z,9.23
2019-05-02T00:39:37.261Z,10.43
2019-05-02T00:42:12.727Z,9.73
2019-05-02T00:44:34.954Z,11.53
2019-05-02T00:47:06.123Z,10.03
2019-05-02T00:49:35.527Z,10.63
2019-05-02T00:52:03.232Z,10.35
2019-05-02T00:54:32.567Z,10.30
2019-05-02T00:57:02.161Z,9.50
2019-05-02T00:59:31.018Z,9.87
2019-05-02T01:02:04.794Z,12.07
2019-05-02T01:04:29.450Z,10.37
2019-05-02T01:06:59.032Z,9.77
2019-05-02T01:09:27.889Z,10.23
2019-05-02T01:11:56.740Z,11.10
2019-05-02T01:14:27.047Z,10.10
2019-05-02T01:16:56.214Z,9.93
2019-05-02T01:19:23.306Z,10.73
2019-05-02T01:21:52.895Z,9.70
2019-05-02T01:24:21.743Z,11.20
2019-05-02T01:26:50.597Z,11.05
2019-05-02T01:29:20.252Z,11.73
2019-05-02T01:31:49.965Z,12.97
2019-05-02T01:34:19.699Z,10.67
2019-05-02T01:36:53.957Z,10.70
2019-05-02T01:39:22.819Z,10.03
2019-05-02T01:41:52.407Z,11.40
2019-05-02T01:44:22.014Z,12.27
2019-05-02T01:46:54.053Z,11.88
2019-05-02T01:49:21.876Z,11.70
2019-05-02T01:51:49.317Z,12.53
2019-05-02T01:54:18.201Z,12.17
2019-05-02T01:56:47.785Z,15.32
2019-05-02T01:59:16.629Z,14.30
2019-05-02T02:01:45.496Z,11.73
2019-05-02T02:04:16.146Z,14.33
2019-05-02T02:06:45.172Z,13.07
2019-05-02T02:09:12.769Z,11.87
2019-05-02T02:11:41.615Z,12.03
2019-05-02T02:14:13.067Z,13.63
2019-05-02T02:16:40.516Z,12.27
2019-05-02T02:19:08.161Z,15.27
2019-05-02T02:21:37.890Z,16.23
2019-05-02T02:24:06.737Z,14.80
2019-05-02T02:26:35.587Z,13.43
2019-05-02T02:29:07.835Z,16.20
2019-05-02T02:31:39.910Z,13.80
2019-05-02T02:34:02.172Z,13.90
2019-05-02T02:36:34.138Z,13.87
2019-05-02T02:38:59.858Z,13.33
2019-05-02T02:41:28.755Z,12.60
2019-05-02T02:44:00.504Z,13.20
2019-05-02T02:46:30.827Z,14.37
2019-05-02T02:48:57.182Z,14.10
2019-05-02T02:51:26.777Z,14.40
2019-05-02T02:54:02.868Z,13.97
2019-05-02T02:56:24.480Z,12.80
2019-05-02T02:58:53.330Z,13.40
2019-05-02T03:01:29.108Z,12.93
2019-05-02T03:03:51.765Z,14.77
2019-05-02T03:06:20.616Z,14.00
2019-05-02T03:08:49.462Z,13.97
2019-05-02T03:11:23.491Z,18.80
2019-05-02T03:13:52.629Z,13.97
2019-05-02T03:16:19.084Z,16.58
2019-05-02T03:18:47.941Z,16.67
2019-05-02T03:21:20.158Z,15.67
2019-05-02T03:23:45.642Z,15.50
2019-05-02T03:26:15.604Z,15.00
2019-05-02T03:28:43.359Z,15.13
2019-05-02T03:31:23.632Z,14.63
2019-05-02T03:33:55.115Z,15.87
2019-05-02T03:36:25.817Z,16.77
2019-05-02T03:38:38.725Z,16.17
2019-05-02T03:41:13.353Z,15.47
2019-05-02T03:43:37.152Z,14.83
2019-05-02T03:46:06.032Z,15.93
2019-05-02T03:48:34.834Z,15.40
2019-05-02T03:51:05.219Z,16.63
2019-05-02T03:53:32.560Z,18.45
2019-05-02T03:56:10.835Z,17.80
2019-05-02T03:58:31.007Z,18.47
2019-05-02T04:01:01.688Z,19.73
2019-05-02T04:03:34.162Z,18.63
2019-05-02T04:05:58.290Z,18.33
2019-05-02T04:08:27.128Z,24.25
2019-05-02T04:13:42.865Z,24.25
2019-05-02T04:16:15.261Z,23.20
2019-05-02T04:18:40.564Z,23.07
2019-05-02T04:21:10.138Z,21.33
2019-05-02T04:23:39.015Z,23.60
2019-05-02T04:26:12.907Z,26.60
2019-05-02T04:28:36.678Z,25.37
2019-05-02T04:31:05.526Z,28.63
2019-05-02T04:33:36.371Z,28.57
2019-05-02T04:36:13.544Z,33.35
2019-05-02T04:38:44.300Z,34.20
2019-05-02T04:41:00.941Z,33.77
2019-05-02T04:43:29.827Z,30.60
2019-05-02T04:46:00.166Z,34.90
2019-05-02T04:48:28.481Z,32.40
2019-05-02T04:51:01.980Z,35.03
2019-05-02T04:53:36.719Z,37.90
2019-05-02T04:56:01.597Z,36.75
2019-05-02T04:58:29.592Z,36.92
2019-05-02T05:00:58.313Z,36.43
2019-05-02T05:03:22.795Z,35.57
2019-05-02T05:05:51.650Z,39.53
2019-05-02T05:08:26.217Z,36.83
2019-05-02T05:10:49.355Z,34.30
2019-05-02T05:13:22.800Z,32.13
2019-05-02T05:15:51.276Z,33.13
2019-05-02T05:18:17.633Z,35.40
2019-05-02T05:20:46.085Z,36.10
2019-05-02T05:23:15.735Z,33.43
2019-05-02T05:25:45.026Z,38.50
2019-05-02T05:28:13.837Z,33.60
2019-05-02T05:30:45.432Z,32.10
2019-05-02T05:33:11.517Z,32.57
2019-05-02T05:35:46.366Z,27.90
2019-05-02T05:38:09.231Z,27.60
2019-05-02T05:40:38.674Z,26.70
2019-05-02T05:43:14.530Z,30.27
2019-05-02T05:45:48.643Z,45.67
2019-05-02T05:48:05.266Z,32.38
2019-05-02T05:50:37.724Z,26.90
2019-05-02T05:53:02.962Z,25.97
2019-05-02T05:55:31.824Z,22.00
2019-05-02T05:58:11.818Z,23.43
2019-05-02T06:00:30.279Z,24.83
2019-05-02T06:03:10.292Z,29.33
2019-05-02T06:05:33.341Z,23.10
2019-05-02T06:07:58.378Z,20.67
2019-05-02T06:10:27.816Z,21.97
2019-05-02T06:12:56.670Z,21.35
2019-05-02T06:15:25.519Z,18.93
2019-05-02T06:17:54.377Z,20.37
2019-05-02T06:20:25.675Z,19.23
2019-05-02T06:22:54.986Z,18.50
2019-05-02T06:25:32.419Z,21.03
2019-05-02T06:27:49.801Z,20.90
2019-05-02T06:30:18.651Z,22.40
2019-05-02T06:32:49.963Z,19.57
2019-05-02T06:35:17.102Z,20.57
2019-05-02T06:37:49.493Z,23.83
2019-05-02T06:40:14.074Z,24.17
2019-05-02T06:42:42.928Z,22.33
2019-05-02T06:45:11.796Z,24.87
2019-05-02T06:47:41.549Z,26.20
2019-05-02T06:50:09.559Z,21.90
2019-05-02T06:52:38.394Z,21.70
2019-05-02T06:55:07.245Z,20.33
2019-05-02T06:57:36.092Z,19.77
2019-05-02T07:00:06.782Z,20.27
2019-05-02T07:02:35.400Z,18.10
2019-05-02T07:05:05.162Z,20.40
2019-05-02T07:07:36.995Z,19.97
2019-05-02T07:10:02.887Z,19.60
2019-05-02T07:12:31.762Z,18.83
2019-05-02T07:15:01.542Z,18.75
2019-05-02T07:17:32.057Z,18.93
2019-05-02T07:20:04.035Z,16.40
2019-05-02T07:22:33.047Z,18.17
2019-05-02T07:25:01.950Z,17.50
2019-05-02T07:27:33.749Z,20.00
2019-05-02T07:29:59.709Z,18.90
2019-05-02T07:32:27.820Z,26.07
2019-05-02T07:34:56.676Z,29.23
2019-05-02T07:37:25.530Z,32.13
2019-05-02T07:39:54.375Z,30.53
2019-05-02T07:42:23.233Z,37.17
2019-05-02T07:44:52.071Z,34.53
2019-05-02T07:47:21.656Z,40.10
2019-05-02T07:49:50.513Z,43.90
2019-05-02T07:52:19.377Z,50.43
2019-05-02T07:54:48.234Z,54.97
2019-05-02T07:57:17.127Z,55.10
2019-05-02T07:59:45.960Z,51.47
2019-05-02T08:02:14.817Z,59.00
2019-05-02T08:04:44.927Z,57.57
2019-05-02T08:07:16.286Z,54.90
2019-05-02T08:09:44.091Z,53.67
2019-05-02T08:12:10.971Z,53.00
2019-05-02T08:14:39.843Z,60.93
2019-05-02T08:17:16.096Z,58.13
2019-05-02T08:19:41.617Z,60.55
2019-05-02T08:22:13.665Z,57.23
2019-05-02T08:24:37.968Z,54.43
2019-05-02T08:27:04.205Z,56.17
2019-05-02T08:29:33.034Z,54.07
2019-05-02T08:32:01.905Z,56.93
2019-05-02T08:34:33.273Z,62.67
2019-05-02T08:37:03.172Z,58.93
2019-05-02T08:39:33.718Z,58.73
2019-05-02T08:42:00.599Z,63.40
2019-05-02T08:44:29.432Z,57.63
2019-05-02T08:46:59.019Z,57.23
2019-05-02T08:49:27.874Z,58.03
2019-05-02T08:51:56.730Z,57.67
2019-05-02T08:54:28.022Z,61.87
2019-05-02T08:56:58.944Z,59.37
2019-05-02T08:59:24.516Z,66.65
2019-05-02T09:01:52.876Z,61.23
2019-05-02T09:04:24.208Z,62.17
2019-05-02T09:06:53.207Z,66.72
2019-05-02T09:09:22.770Z,61.10
2019-05-02T09:12:01.313Z,59.43
2019-05-02T09:14:17.151Z,58.87
2019-05-02T09:16:46.543Z,58.73
2019-05-02T09:19:21.309Z,60.60
2019-05-02T09:21:44.309Z,62.60
2019-05-02T09:24:20.681Z,59.03
2019-05-02T09:26:42.582Z,64.13
2019-05-02T09:29:12.555Z,66.13
2019-05-02T09:31:42.158Z,64.78
2019-05-02T09:34:08.520Z,62.37
2019-05-02T09:36:38.209Z,60.93
2019-05-02T09:39:06.214Z,66.77
2019-05-02T09:41:36.305Z,56.70
2019-05-02T09:44:03.972Z,60.17
2019-05-02T09:46:32.866Z,62.80
2019-05-02T09:49:06.528Z,60.00
2019-05-02T09:51:32.440Z,57.40
2019-05-02T09:54:02.728Z,59.37
2019-05-02T09:56:28.288Z,57.80
2019-05-02T09:59:04.757Z,62.30
2019-05-02T10:01:26.055Z,59.27
2019-05-02T10:03:55.636Z,55.00
2019-05-02T10:06:24.474Z,55.93
2019-05-02T10:08:53.352Z,54.63
2019-05-02T10:11:26.095Z,56.47
2019-05-02T10:13:51.840Z,54.97
2019-05-02T10:16:23.526Z,61.67
2019-05-02T10:18:48.750Z,51.77
2019-05-02T10:21:17.607Z,53.60
2019-05-02T10:23:46.444Z,50.43
2019-05-02T10:26:20.275Z,50.00
2019-05-02T10:28:49.516Z,55.70
2019-05-02T10:31:13.028Z,48.97
2019-05-02T10:33:42.622Z,53.03
2019-05-02T10:36:19.405Z,55.97
2019-05-02T10:38:42.711Z,86.30
2019-05-02T10:41:12.056Z,54.95
2019-05-02T10:43:42.163Z,52.78
2019-05-02T10:46:13.018Z,54.15
2019-05-02T10:48:42.450Z,51.17
2019-05-02T10:51:11.690Z,51.63
2019-05-02T10:53:41.927Z,49.93
2019-05-02T10:56:11.703Z,46.63
2019-05-02T10:58:38.601Z,51.40
2019-05-02T11:01:08.204Z,52.67
2019-05-02T11:03:38.111Z,47.10
2019-05-02T11:06:07.823Z,59.33
2019-05-02T11:08:36.868Z,47.10
2019-05-02T11:11:06.115Z,48.90
2019-05-02T11:13:32.452Z,53.72
2019-05-02T11:16:07.756Z,48.03
2019-05-02T11:18:44.855Z,46.33
2019-05-02T11:21:12.214Z,43.90
2019-05-02T11:23:41.930Z,41.40
2019-05-02T11:26:13.943Z,43.33
2019-05-02T11:28:38.349Z,44.63
2019-05-02T11:31:09.864Z,43.53
2019-05-02T11:33:36.771Z,44.15
2019-05-02T11:36:05.634Z,44.33
2019-05-02T11:38:39.717Z,43.63
2019-05-02T11:41:03.317Z,43.17
2019-05-02T11:43:32.591Z,41.22
2019-05-02T11:46:05.902Z,43.53
2019-05-02T11:48:34.334Z,39.92
2019-05-02T11:51:07.394Z,39.00
2019-05-02T11:53:32.657Z,36.42
2019-05-02T11:56:03.685Z,32.83
2019-05-02T11:58:29.774Z,33.88
2019-05-02T12:00:58.648Z,36.80
2019-05-02T12:03:32.806Z,37.83
2019-05-02T12:05:57.068Z,34.42
2019-05-02T12:08:25.940Z,31.40
2019-05-02T12:10:54.785Z,35.95
2019-05-02T12:13:23.633Z,32.88
2019-05-02T12:15:52.506Z,33.00
2019-05-02T12:18:23.314Z,35.47
2019-05-02T12:20:52.001Z,33.80
2019-05-02T12:23:19.088Z,33.05
2019-05-02T12:25:48.676Z,31.90
2019-05-02T12:28:18.270Z,29.50
2019-05-02T12:30:47.117Z,29.20
2019-05-02T12:33:16.749Z,29.48
2019-05-02T12:35:46.330Z,29.25
2019-05-02T12:38:15.173Z,29.55
2019-05-02T12:40:44.021Z,27.42
2019-05-02T12:43:12.862Z,27.92
2019-05-02T12:45:42.452Z,24.77
2019-05-02T12:48:12.908Z,30.08
2019-05-02T12:50:41.772Z,24.25
2019-05-02T12:53:08.991Z,26.45
2019-05-02T12:55:37.845Z,25.25
2019-05-02T12:58:06.693Z,29.12
2019-05-02T13:00:35.532Z,27.30
2019-05-02T13:03:05.165Z,31.85
2019-05-02T13:05:34.020Z,16.35
2019-05-02T13:08:03.643Z,18.70
2019-05-02T13:10:35.128Z,18.83
2019-05-02T13:13:03.982Z,14.63
2019-05-02T13:15:33.017Z,15.52
2019-05-02T13:18:03.014Z,14.45
2019-05-02T13:20:34.665Z,17.55
2019-05-02T13:23:04.358Z,13.23
2019-05-02T13:25:36.847Z,13.73
2019-05-02T13:28:02.208Z,12.18
2019-05-02T13:30:32.775Z,13.20
2019-05-02T13:32:59.747Z,12.48
2019-05-02T13:35:31.518Z,12.37
2019-05-02T13:37:58.200Z,11.50
2019-05-02T13:40:27.009Z,11.80
2019-05-02T13:45:27.587Z,13.23
2019-05-02T13:47:56.439Z,13.68
2019-05-02T13:50:25.295Z,14.20
2019-05-02T13:52:57.910Z,15.73
2019-05-02T13:55:23.797Z,15.55
2019-05-02T13:57:53.065Z,14.05
2019-05-02T14:00:22.379Z,16.35
2019-05-02T14:02:52.012Z,15.75
2019-05-02T14:05:19.173Z,16.05
2019-05-02T14:07:52.575Z,14.20
2019-05-02T14:10:16.882Z,17.98
2019-05-02T14:12:45.734Z,14.38
2019-05-02T14:15:15.321Z,13.52
2019-05-02T14:17:44.189Z,14.75
2019-05-02T14:20:13.771Z,16.50
2019-05-02T14:22:42.472Z,13.32
2019-05-02T14:25:12.310Z,16.15
2019-05-02T14:27:42.018Z,14.70
2019-05-02T14:30:08.463Z,16.25
2019-05-02T14:32:37.303Z,16.58
2019-05-02T14:35:06.151Z,15.10
2019-05-02T14:37:35.752Z,16.33
2019-05-02T14:40:06.590Z,18.12
2019-05-02T14:42:36.189Z,16.20
2019-05-02T14:45:19.909Z,15.65
2019-05-02T14:47:35.388Z,17.42
2019-05-02T14:50:05.215Z,16.92
2019-05-02T14:52:37.101Z,17.55
2019-05-02T14:55:03.014Z,21.33
2019-05-02T14:57:32.643Z,17.55
2019-05-02T15:00:03.246Z,14.73
2019-05-02T15:02:34.616Z,15.05
2019-05-02T15:05:03.199Z,16.10
2019-05-02T15:07:32.062Z,17.92
2019-05-02T15:10:05.416Z,14.00
2019-05-02T15:12:32.504Z,16.20
2019-05-02T15:14:59.964Z,19.10
2019-05-02T15:17:33.677Z,20.42
2019-05-02T15:19:57.643Z,17.98
2019-05-02T15:22:27.587Z,17.35
2019-05-02T15:24:56.728Z,16.48
2019-05-02T15:27:33.307Z,18.33
2019-05-02T15:30:01.017Z,17.65
2019-05-02T15:32:25.566Z,16.45
2019-05-02T15:34:54.709Z,17.85
2019-05-02T15:37:25.702Z,16.98
2019-05-02T15:42:22.889Z,16.80
2019-05-02T15:44:52.114Z,15.07
2019-05-02T15:47:18.964Z,16.00
2019-05-02T15:49:50.155Z,16.75
2019-05-02T15:52:19.000Z,14.63
2019-05-02T15:54:46.364Z,16.40
2019-05-02T15:57:18.929Z,17.23
2019-05-02T15:59:46.249Z,16.30
2019-05-02T16:02:17.556Z,16.35
2019-05-02T16:04:44.123Z,15.77
2019-05-02T16:07:13.735Z,14.43
2019-05-02T16:09:42.581Z,15.18
2019-05-02T16:12:12.280Z,16.05
2019-05-02T16:14:42.300Z,13.73
2019-05-02T16:17:09.214Z,16.12
2019-05-02T16:19:38.059Z,16.48
2019-05-02T16:22:08.151Z,25.17
2019-05-02T16:24:36.619Z,17.45
2019-05-02T16:27:05.484Z,16.70
2019-05-02T16:29:34.333Z,17.05
2019-05-02T16:32:06.128Z,15.60
2019-05-02T16:34:35.440Z,18.23
2019-05-02T16:37:07.075Z,18.67
2019-05-02T16:39:34.196Z,14.20
2019-05-02T16:42:04.732Z,13.73
2019-05-02T16:44:32.637Z,14.23
2019-05-02T16:47:02.224Z,14.93
2019-05-02T16:49:32.148Z,14.10
2019-05-02T16:52:04.934Z,14.17
2019-05-02T16:54:28.053Z,13.73
2019-05-02T16:56:58.565Z,14.63
2019-05-02T16:59:25.801Z,13.50
2019-05-02T17:01:54.662Z,15.03
2019-05-02T17:04:24.077Z,14.43
2019-05-02T17:06:56.800Z,15.98
2019-05-02T17:09:23.728Z,14.87
2019-05-02T17:11:52.319Z,14.67
2019-05-02T17:14:19.500Z,14.10
2019-05-02T17:16:52.410Z,13.27
2019-05-02T17:19:17.213Z,14.30
2019-05-02T17:21:53.814Z,14.33
2019-05-02T17:24:17.325Z,15.57
2019-05-02T17:26:44.575Z,13.23
2019-05-02T17:29:16.504Z,16.13
2019-05-02T17:31:42.689Z,15.73
2019-05-02T17:34:13.395Z,15.30
2019-05-02T17:36:39.999Z,15.60
2019-05-02T17:39:09.455Z,15.17
2019-05-02T17:41:42.301Z,16.30
2019-05-02T17:44:07.181Z,16.70
2019-05-02T17:46:39.150Z,16.43
2019-05-02T17:49:05.644Z,18.45
2019-05-02T17:51:37.691Z,16.43
2019-05-02T17:54:03.347Z,17.37
2019-05-02T17:56:32.644Z,16.30
2019-05-02T17:59:02.050Z,18.98
2019-05-02T18:01:33.346Z,16.87
2019-05-02T18:03:58.849Z,19.40
2019-05-02T18:06:32.893Z,18.03
2019-05-02T18:08:56.579Z,18.00
2019-05-02T18:11:29.557Z,21.60
2019-05-02T18:13:54.903Z,18.20
2019-05-02T18:16:24.483Z,18.73
2019-05-02T18:18:53.951Z,22.15
2019-05-02T18:21:26.974Z,20.97
2019-05-02T18:23:52.030Z,20.27
2019-05-02T18:26:22.150Z,22.95
2019-05-02T18:28:49.506Z,24.00
2019-05-02T18:31:18.339Z,22.87
2019-05-02T18:33:47.216Z,23.43
2019-05-02T18:36:17.489Z,26.27
2019-05-02T18:38:45.013Z,31.93
2019-05-02T18:41:13.833Z,30.92
2019-05-02T18:43:45.217Z,30.83
2019-05-02T18:46:12.653Z,27.70
2019-05-02T18:48:44.223Z,27.23
2019-05-02T18:51:09.256Z,25.90
2019-05-02T18:53:38.695Z,26.07
2019-05-02T18:56:07.597Z,26.23
2019-05-02T18:58:40.986Z,26.50
2019-05-02T19:01:08.417Z,25.03
2019-05-02T19:03:34.272Z,25.80
2019-05-02T19:06:03.147Z,24.97
2019-05-02T19:08:45.060Z,24.50
2019-05-02T19:11:10.020Z,23.03
2019-05-02T19:13:32.540Z,24.87
2019-05-02T19:15:58.702Z,24.13
2019-05-02T19:18:27.609Z,23.30
2019-05-02T19:20:57.838Z,22.13
2019-05-02T19:23:26.251Z,24.77
2019-05-02T19:25:55.140Z,23.67
2019-05-02T19:28:29.057Z,22.80
2019-05-02T19:30:57.309Z,22.13
2019-05-02T19:33:23.637Z,22.30
2019-05-02T19:35:52.674Z,23.13
2019-05-02T19:38:24.714Z,20.57
2019-05-02T19:40:52.050Z,21.37
2019-05-02T19:43:20.561Z,20.30
2019-05-02T19:45:51.248Z,20.30
2019-05-02T19:48:18.322Z,19.00
2019-05-02T19:50:47.147Z,18.20
2019-05-02T19:53:18.255Z,19.93
2019-05-02T19:55:45.611Z,20.57
2019-05-02T19:58:14.491Z,18.20
2019-05-02T20:00:46.241Z,18.57
2019-05-02T20:03:13.679Z,18.80
2019-05-02T20:05:42.810Z,18.27
2019-05-02T20:08:14.836Z,20.43
2019-05-02T20:10:38.857Z,18.03
2019-05-02T20:13:07.712Z,18.17
2019-05-02T20:15:36.577Z,17.00
2019-05-02T20:18:05.444Z,15.93
2019-05-02T20:20:40.539Z,17.63
2019-05-02T20:23:15.432Z,17.37
2019-05-02T20:25:38.923Z,15.10
2019-05-02T20:28:03.917Z,16.77
2019-05-02T20:30:32.761Z,16.50
2019-05-02T20:33:02.199Z,17.57
2019-05-02T20:35:31.945Z,17.70
2019-05-02T20:37:59.331Z,16.00
2019-05-02T20:43:06.664Z,16.93
2019-05-02T20:45:35.520Z,17.63
2019-05-02T20:48:04.355Z,15.63
2019-05-02T20:50:33.215Z,16.97
2019-05-02T20:53:02.837Z,17.23
2019-05-02T20:55:32.270Z,18.65
2019-05-02T20:58:02.189Z,18.50
2019-05-02T21:00:29.384Z,16.43
2019-05-02T21:02:58.289Z,17.03
2019-05-02T21:05:27.089Z,18.37
2019-05-02T21:07:58.885Z,21.20
2019-05-02T21:10:29.623Z,19.93
2019-05-02T21:12:58.470Z,23.00
2019-05-02T21:15:27.322Z,21.13
2019-05-02T21:17:56.169Z,23.37
2019-05-02T21:20:25.031Z,25.27
2019-05-02T21:22:53.872Z,24.10
2019-05-02T21:25:23.173Z,23.67
2019-05-02T21:27:52.362Z,25.13
2019-05-02T21:30:23.727Z,29.87
2019-05-02T21:32:52.575Z,30.30
2019-05-02T21:35:22.385Z,29.90
2019-05-02T21:37:52.427Z,30.07
2019-05-02T21:40:19.929Z,34.57
2019-05-02T21:42:48.747Z,30.80
2019-05-02T21:45:17.595Z,32.88
2019-05-02T21:47:47.185Z,29.93
2019-05-02T21:50:17.935Z,32.15
2019-05-02T21:52:49.515Z,29.83
2019-05-02T21:55:21.728Z,30.47
2019-05-02T21:57:49.091Z,29.70
2019-05-02T22:00:17.943Z,30.87
2019-05-02T22:02:46.795Z,30.03
2019-05-02T22:05:15.639Z,33.22
2019-05-02T22:07:44.487Z,33.60
2019-05-02T22:10:13.337Z,32.50
2019-05-02T22:12:42.304Z,29.30
2019-05-02T22:15:12.737Z,28.13
2019-05-02T22:17:41.576Z,29.97
2019-05-02T22:20:12.249Z,30.42
2019-05-02T22:22:39.841Z,31.57
2019-05-02T22:25:08.696Z,29.43
2019-05-02T22:27:38.133Z,30.37
2019-05-02T22:30:06.999Z,29.90
2019-05-02T22:32:35.901Z,27.67
2019-05-02T22:35:05.527Z,28.13
2019-05-02T22:37:34.365Z,29.53
2019-05-02T22:40:03.936Z,26.67
2019-05-02T22:42:32.347Z,28.10
2019-05-02T22:45:01.682Z,26.10
2019-05-02T22:47:32.033Z,28.30
2019-05-02T22:49:59.329Z,28.63
2019-05-02T22:52:28.185Z,27.23
2019-05-02T22:54:57.760Z,26.90
2019-05-02T22:57:26.597Z,26.80
2019-05-02T22:59:55.433Z,26.73
2019-05-02T23:02:24.291Z,27.97
2019-05-02T23:04:53.131Z,31.77
2019-05-02T23:07:22.258Z,27.93
2019-05-02T23:09:52.503Z,27.13
2019-05-02T23:12:19.711Z,27.27
2019-05-02T23:14:49.303Z,26.27
2019-05-02T23:17:18.147Z,24.23
2019-05-02T23:19:47.008Z,25.53
2019-05-02T23:22:15.844Z,24.93
2019-05-02T23:24:45.476Z,25.23
2019-05-02T23:27:19.893Z,25.40
2019-05-02T23:29:48.740Z,25.83
2019-05-02T23:32:17.610Z,26.63
2019-05-02T23:34:46.455Z,24.50
2019-05-02T23:37:15.307Z,23.87
2019-05-02T23:39:44.149Z,23.80
2019-05-02T23:42:13.524Z,19.93
2019-05-02T23:44:42.573Z,20.65
2019-05-02T23:47:11.755Z,18.43
2019-05-02T23:49:39.561Z,16.47
2019-05-02T23:52:08.416Z,14.50
2019-05-02T23:54:49.179Z,14.97
2019-05-02T23:57:06.097Z,13.03
2019-05-02T23:59:34.943Z,13.37
